sensor_id;sensor_type;location;lat;lon;timestamp;P1;durP1;ratioP1;P2;durP2;ratioP2
20379;SDS011;10349;48.666;8.948;2023-04-08T00:00:09;17.50;;;9.80;;
20379;SDS011;10349;48.666;8.948;2023-04-08T00:02:38;16.40;;;9.73;;
20379;SDS011;10349;48.666;8.948;2023-04-08T00:05:04;16.70;;;10.27;;
20379;SDS011;10349;48.666;8.948;2023-04-08T00:07:30;12.43;;;8.17;;
20379;SDS011;10349;48.666;8.948;2023-04-08T00:09:56;13.07;;;8.13;;
20379;SDS011;10349;48.666;8.948;2023-04-08T00:12:21;12.27;;;8.17;;
20379;SDS011;10349;48.666;8.948;2023-04-08T00:14:47;16.37;;;8.90;;
20379;SDS011;10349;48.666;8.948;2023-04-08T00:17:12;17.47;;;9.43;;
20379;SDS011;10349;48.666;8.948;2023-04-08T00:19:38;14.33;;;9.23;;
20379;SDS011;10349;48.666;8.948;2023-04-08T00:22:04;12.80;;;8.50;;
20379;SDS011;10349;48.666;8.948;2023-04-08T00:24:29;14.63;;;9.37;;
20379;SDS011;10349;48.666;8.948;2023-04-08T00:26:56;16.50;;;7.67;;
20379;SDS011;10349;48.666;8.948;2023-04-08T00:29:22;22.23;;;9.07;;
20379;SDS011;10349;48.666;8.948;2023-04-08T00:31:48;11.10;;;8.10;;
20379;SDS011;10349;48.666;8.948;2023-04-08T00:34:13;14.37;;;9.20;;
20379;SDS011;10349;48.666;8.948;2023-04-08T00:36:39;16.60;;;10.37;;
20379;SDS011;10349;48.666;8.948;2023-04-08T00:39:05;14.20;;;9.00;;
20379;SDS011;10349;48.666;8.948;2023-04-08T00:41:32;13.43;;;9.07;;
20379;SDS011;10349;48.666;8.948;2023-04-08T00:44:00;12.37;;;7.53;;
20379;SDS011;10349;48.666;8.948;2023-04-08T00:46:26;18.73;;;9.27;;
20379;SDS011;10349;48.666;8.948;2023-04-08T00:48:53;12.97;;;8.70;;
20379;SDS011;10349;48.666;8.948;2023-04-08T00:51:19;13.10;;;9.53;;
20379;SDS011;10349;48.666;8.948;2023-04-08T00:53:45;19.83;;;9.03;;
20379;SDS011;10349;48.666;8.948;2023-04-08T00:56:11;12.00;;;7.87;;
20379;SDS011;10349;48.666;8.948;2023-04-08T00:58:36;16.50;;;8.20;;
20379;SDS011;10349;48.666;8.948;2023-04-08T01:01:04;16.77;;;9.10;;
20379;SDS011;10349;48.666;8.948;2023-04-08T01:09:08;14.60;;;8.53;;
20379;SDS011;10349;48.666;8.948;2023-04-08T01:11:35;16.07;;;10.80;;
20379;SDS011;10349;48.666;8.948;2023-04-08T01:14:06;16.90;;;8.73;;
20379;SDS011;10349;48.666;8.948;2023-04-08T01:16:34;12.97;;;8.80;;
20379;SDS011;10349;48.666;8.948;2023-04-08T01:19:02;16.30;;;10.13;;
20379;SDS011;10349;48.666;8.948;2023-04-08T01:21:32;15.27;;;8.87;;
20379;SDS011;10349;48.666;8.948;2023-04-08T01:24:08;23.13;;;12.80;;
20379;SDS011;10349;48.666;8.948;2023-04-08T01:26:41;11.77;;;8.07;;
20379;SDS011;10349;48.666;8.948;2023-04-08T01:29:07;16.60;;;9.70;;
20379;SDS011;10349;48.666;8.948;2023-04-08T01:31:38;15.03;;;9.17;;
20379;SDS011;10349;48.666;8.948;2023-04-08T01:34:04;17.37;;;11.07;;
20379;SDS011;10349;48.666;8.948;2023-04-08T01:36:31;14.00;;;9.20;;
20379;SDS011;10349;48.666;8.948;2023-04-08T01:39:00;16.80;;;9.07;;
20379;SDS011;10349;48.666;8.948;2023-04-08T01:41:29;14.70;;;9.77;;
20379;SDS011;10349;48.666;8.948;2023-04-08T01:43:57;14.73;;;9.33;;
20379;SDS011;10349;48.666;8.948;2023-04-08T01:46:23;14.43;;;10.07;;
20379;SDS011;10349;48.666;8.948;2023-04-08T01:48:49;17.13;;;9.80;;
20379;SDS011;10349;48.666;8.948;2023-04-08T01:51:16;13.90;;;8.97;;
20379;SDS011;10349;48.666;8.948;2023-04-08T01:53:42;15.00;;;8.83;;
20379;SDS011;10349;48.666;8.948;2023-04-08T01:56:10;14.97;;;9.97;;
20379;SDS011;10349;48.666;8.948;2023-04-08T01:58:44;16.60;;;10.27;;
20379;SDS011;10349;48.666;8.948;2023-04-08T02:01:13;20.40;;;11.77;;
20379;SDS011;10349;48.666;8.948;2023-04-08T02:03:44;19.33;;;11.07;;
20379;SDS011;10349;48.666;8.948;2023-04-08T02:06:12;20.50;;;11.70;;
20379;SDS011;10349;48.666;8.948;2023-04-08T02:08:38;20.97;;;12.37;;
20379;SDS011;10349;48.666;8.948;2023-04-08T02:11:04;21.70;;;12.40;;
20379;SDS011;10349;48.666;8.948;2023-04-08T02:13:30;31.37;;;14.10;;
20379;SDS011;10349;48.666;8.948;2023-04-08T02:16:02;24.20;;;13.70;;
20379;SDS011;10349;48.666;8.948;2023-04-08T02:18:42;18.27;;;11.83;;
20379;SDS011;10349;48.666;8.948;2023-04-08T02:21:11;22.00;;;12.13;;
20379;SDS011;10349;48.666;8.948;2023-04-08T02:23:40;20.20;;;11.23;;
20379;SDS011;10349;48.666;8.948;2023-04-08T02:26:13;25.20;;;14.20;;
20379;SDS011;10349;48.666;8.948;2023-04-08T02:28:41;19.37;;;11.17;;
20379;SDS011;10349;48.666;8.948;2023-04-08T02:31:09;20.07;;;10.83;;
20379;SDS011;10349;48.666;8.948;2023-04-08T02:33:43;24.67;;;12.10;;
20379;SDS011;10349;48.666;8.948;2023-04-08T02:36:10;18.00;;;11.37;;
20379;SDS011;10349;48.666;8.948;2023-04-08T02:38:37;29.10;;;11.10;;
20379;SDS011;10349;48.666;8.948;2023-04-08T02:41:03;18.53;;;10.10;;
20379;SDS011;10349;48.666;8.948;2023-04-08T02:43:28;30.70;;;13.07;;
20379;SDS011;10349;48.666;8.948;2023-04-08T02:45:57;22.80;;;12.60;;
20379;SDS011;10349;48.666;8.948;2023-04-08T02:48:27;22.40;;;11.60;;
20379;SDS011;10349;48.666;8.948;2023-04-08T02:50:54;23.50;;;12.33;;
20379;SDS011;10349;48.666;8.948;2023-04-08T02:53:21;21.00;;;14.00;;
20379;SDS011;10349;48.666;8.948;2023-04-08T02:55:48;22.13;;;11.83;;
20379;SDS011;10349;48.666;8.948;2023-04-08T02:58:13;15.70;;;9.40;;
20379;SDS011;10349;48.666;8.948;2023-04-08T03:00:40;22.37;;;12.50;;
20379;SDS011;10349;48.666;8.948;2023-04-08T03:03:05;23.87;;;10.43;;
20379;SDS011;10349;48.666;8.948;2023-04-08T03:05:31;22.80;;;10.23;;
20379;SDS011;10349;48.666;8.948;2023-04-08T03:07:57;25.97;;;12.30;;
20379;SDS011;10349;48.666;8.948;2023-04-08T03:10:23;19.73;;;11.53;;
20379;SDS011;10349;48.666;8.948;2023-04-08T03:12:49;22.63;;;12.57;;
20379;SDS011;10349;48.666;8.948;2023-04-08T03:15:15;19.07;;;10.67;;
20379;SDS011;10349;48.666;8.948;2023-04-08T03:17:40;17.63;;;9.30;;
20379;SDS011;10349;48.666;8.948;2023-04-08T03:22:56;21.83;;;11.43;;
20379;SDS011;10349;48.666;8.948;2023-04-08T03:25:22;16.50;;;10.67;;
20379;SDS011;10349;48.666;8.948;2023-04-08T03:27:48;18.27;;;10.13;;
20379;SDS011;10349;48.666;8.948;2023-04-08T03:30:13;18.40;;;10.30;;
20379;SDS011;10349;48.666;8.948;2023-04-08T03:32:39;16.00;;;8.93;;
20379;SDS011;10349;48.666;8.948;2023-04-08T03:35:05;18.17;;;10.17;;
20379;SDS011;10349;48.666;8.948;2023-04-08T03:37:31;14.13;;;8.57;;
20379;SDS011;10349;48.666;8.948;2023-04-08T03:39:57;18.00;;;10.23;;
20379;SDS011;10349;48.666;8.948;2023-04-08T03:42:23;18.60;;;10.27;;
20379;SDS011;10349;48.666;8.948;2023-04-08T03:44:48;14.53;;;9.60;;
20379;SDS011;10349;48.666;8.948;2023-04-08T03:47:14;18.57;;;10.40;;
20379;SDS011;10349;48.666;8.948;2023-04-08T03:49:40;14.40;;;8.50;;
20379;SDS011;10349;48.666;8.948;2023-04-08T03:52:07;17.97;;;9.00;;
20379;SDS011;10349;48.666;8.948;2023-04-08T03:54:33;16.13;;;8.33;;
20379;SDS011;10349;48.666;8.948;2023-04-08T03:56:58;13.90;;;8.50;;
20379;SDS011;10349;48.666;8.948;2023-04-08T03:59:24;13.60;;;8.30;;
20379;SDS011;10349;48.666;8.948;2023-04-08T04:01:50;20.33;;;8.13;;
20379;SDS011;10349;48.666;8.948;2023-04-08T04:04:17;18.33;;;8.83;;
20379;SDS011;10349;48.666;8.948;2023-04-08T04:06:43;13.90;;;8.50;;
20379;SDS011;10349;48.666;8.948;2023-04-08T04:09:09;14.47;;;8.63;;
20379;SDS011;10349;48.666;8.948;2023-04-08T04:11:35;12.87;;;9.20;;
20379;SDS011;10349;48.666;8.948;2023-04-08T04:14:01;11.40;;;7.40;;
20379;SDS011;10349;48.666;8.948;2023-04-08T04:16:27;15.00;;;9.10;;
20379;SDS011;10349;48.666;8.948;2023-04-08T04:18:53;14.83;;;8.97;;
20379;SDS011;10349;48.666;8.948;2023-04-08T04:21:19;13.67;;;8.43;;
20379;SDS011;10349;48.666;8.948;2023-04-08T04:23:44;13.17;;;7.87;;
20379;SDS011;10349;48.666;8.948;2023-04-08T04:26:10;17.30;;;10.00;;
20379;SDS011;10349;48.666;8.948;2023-04-08T04:28:36;14.80;;;7.70;;
20379;SDS011;10349;48.666;8.948;2023-04-08T04:31:02;10.13;;;8.30;;
20379;SDS011;10349;48.666;8.948;2023-04-08T04:33:29;12.33;;;7.70;;
20379;SDS011;10349;48.666;8.948;2023-04-08T04:35:55;16.57;;;9.40;;
20379;SDS011;10349;48.666;8.948;2023-04-08T04:38:21;12.63;;;7.63;;
20379;SDS011;10349;48.666;8.948;2023-04-08T04:40:47;12.00;;;8.17;;
20379;SDS011;10349;48.666;8.948;2023-04-08T04:43:12;14.93;;;8.60;;
20379;SDS011;10349;48.666;8.948;2023-04-08T04:45:39;13.33;;;9.17;;
20379;SDS011;10349;48.666;8.948;2023-04-08T04:48:05;13.13;;;8.37;;
20379;SDS011;10349;48.666;8.948;2023-04-08T04:50:31;10.40;;;6.70;;
20379;SDS011;10349;48.666;8.948;2023-04-08T04:52:56;10.87;;;7.30;;
20379;SDS011;10349;48.666;8.948;2023-04-08T04:55:22;11.30;;;7.67;;
20379;SDS011;10349;48.666;8.948;2023-04-08T04:57:48;15.23;;;7.67;;
20379;SDS011;10349;48.666;8.948;2023-04-08T05:00:14;11.80;;;8.70;;
20379;SDS011;10349;48.666;8.948;2023-04-08T05:02:40;12.87;;;7.80;;
20379;SDS011;10349;48.666;8.948;2023-04-08T05:05:06;15.37;;;9.10;;
20379;SDS011;10349;48.666;8.948;2023-04-08T05:07:35;16.53;;;10.10;;
20379;SDS011;10349;48.666;8.948;2023-04-08T05:10:02;11.73;;;9.50;;
20379;SDS011;10349;48.666;8.948;2023-04-08T05:12:28;15.33;;;9.27;;
20379;SDS011;10349;48.666;8.948;2023-04-08T05:14:56;12.93;;;9.33;;
20379;SDS011;10349;48.666;8.948;2023-04-08T05:17:23;12.40;;;9.00;;
20379;SDS011;10349;48.666;8.948;2023-04-08T05:19:49;15.27;;;8.50;;
20379;SDS011;10349;48.666;8.948;2023-04-08T05:22:17;10.70;;;8.27;;
20379;SDS011;10349;48.666;8.948;2023-04-08T05:24:43;13.20;;;8.00;;
20379;SDS011;10349;48.666;8.948;2023-04-08T05:27:09;13.83;;;9.47;;
20379;SDS011;10349;48.666;8.948;2023-04-08T05:29:35;11.60;;;8.13;;
20379;SDS011;10349;48.666;8.948;2023-04-08T05:32:00;13.50;;;8.33;;
20379;SDS011;10349;48.666;8.948;2023-04-08T05:34:26;11.97;;;8.97;;
20379;SDS011;10349;48.666;8.948;2023-04-08T05:36:52;11.83;;;7.93;;
20379;SDS011;10349;48.666;8.948;2023-04-08T05:39:18;13.93;;;8.00;;
20379;SDS011;10349;48.666;8.948;2023-04-08T05:41:43;11.60;;;8.57;;
20379;SDS011;10349;48.666;8.948;2023-04-08T05:44:10;16.03;;;9.37;;
20379;SDS011;10349;48.666;8.948;2023-04-08T05:46:36;16.27;;;8.13;;
20379;SDS011;10349;48.666;8.948;2023-04-08T05:49:03;16.00;;;9.20;;
20379;SDS011;10349;48.666;8.948;2023-04-08T05:51:29;14.13;;;9.07;;
20379;SDS011;10349;48.666;8.948;2023-04-08T05:53:55;13.50;;;9.20;;
20379;SDS011;10349;48.666;8.948;2023-04-08T05:56:20;12.60;;;7.60;;
20379;SDS011;10349;48.666;8.948;2023-04-08T05:58:46;9.83;;;7.33;;
20379;SDS011;10349;48.666;8.948;2023-04-08T06:01:12;13.33;;;8.53;;
20379;SDS011;10349;48.666;8.948;2023-04-08T06:03:39;9.83;;;8.30;;
20379;SDS011;10349;48.666;8.948;2023-04-08T06:06:10;18.63;;;9.40;;
20379;SDS011;10349;48.666;8.948;2023-04-08T06:08:36;14.77;;;8.60;;
20379;SDS011;10349;48.666;8.948;2023-04-08T06:11:02;11.53;;;7.60;;
20379;SDS011;10349;48.666;8.948;2023-04-08T06:13:31;15.40;;;10.10;;
20379;SDS011;10349;48.666;8.948;2023-04-08T06:15:57;12.53;;;8.60;;
20379;SDS011;10349;48.666;8.948;2023-04-08T06:18:23;14.93;;;8.80;;
20379;SDS011;10349;48.666;8.948;2023-04-08T06:20:48;16.50;;;8.67;;
20379;SDS011;10349;48.666;8.948;2023-04-08T06:23:15;16.63;;;8.53;;
20379;SDS011;10349;48.666;8.948;2023-04-08T06:25:41;15.50;;;9.00;;
20379;SDS011;10349;48.666;8.948;2023-04-08T06:28:07;9.63;;;8.33;;
20379;SDS011;10349;48.666;8.948;2023-04-08T06:30:32;17.43;;;9.27;;
20379;SDS011;10349;48.666;8.948;2023-04-08T06:32:58;13.17;;;8.90;;
20379;SDS011;10349;48.666;8.948;2023-04-08T06:35:23;15.33;;;8.67;;
20379;SDS011;10349;48.666;8.948;2023-04-08T06:37:49;12.60;;;7.80;;
20379;SDS011;10349;48.666;8.948;2023-04-08T06:40:15;16.17;;;10.13;;
20379;SDS011;10349;48.666;8.948;2023-04-08T06:42:42;14.10;;;9.53;;
20379;SDS011;10349;48.666;8.948;2023-04-08T06:45:32;13.07;;;9.00;;
20379;SDS011;10349;48.666;8.948;2023-04-08T06:47:58;13.67;;;9.83;;
20379;SDS011;10349;48.666;8.948;2023-04-08T06:50:23;12.90;;;8.43;;
20379;SDS011;10349;48.666;8.948;2023-04-08T06:52:49;19.20;;;10.73;;
20379;SDS011;10349;48.666;8.948;2023-04-08T06:55:15;13.67;;;9.27;;
20379;SDS011;10349;48.666;8.948;2023-04-08T06:57:41;17.77;;;10.83;;
20379;SDS011;10349;48.666;8.948;2023-04-08T07:00:08;15.73;;;10.80;;
20379;SDS011;10349;48.666;8.948;2023-04-08T07:02:34;14.70;;;9.83;;
20379;SDS011;10349;48.666;8.948;2023-04-08T07:05:00;16.57;;;9.37;;
20379;SDS011;10349;48.666;8.948;2023-04-08T07:07:25;19.53;;;9.63;;
20379;SDS011;10349;48.666;8.948;2023-04-08T07:09:51;13.47;;;9.90;;
20379;SDS011;10349;48.666;8.948;2023-04-08T07:12:17;15.57;;;9.07;;
20379;SDS011;10349;48.666;8.948;2023-04-08T07:14:42;10.60;;;8.20;;
20379;SDS011;10349;48.666;8.948;2023-04-08T07:17:08;12.00;;;8.20;;
20379;SDS011;10349;48.666;8.948;2023-04-08T07:19:34;11.23;;;8.13;;
20379;SDS011;10349;48.666;8.948;2023-04-08T07:22:00;17.73;;;8.20;;
20379;SDS011;10349;48.666;8.948;2023-04-08T07:24:27;8.20;;;7.30;;
20379;SDS011;10349;48.666;8.948;2023-04-08T07:26:53;13.83;;;7.97;;
20379;SDS011;10349;48.666;8.948;2023-04-08T07:29:21;9.80;;;7.47;;
20379;SDS011;10349;48.666;8.948;2023-04-08T07:31:46;9.90;;;7.40;;
20379;SDS011;10349;48.666;8.948;2023-04-08T07:34:13;12.73;;;7.13;;
20379;SDS011;10349;48.666;8.948;2023-04-08T07:36:39;13.00;;;7.93;;
20379;SDS011;10349;48.666;8.948;2023-04-08T07:39:05;10.90;;;7.33;;
20379;SDS011;10349;48.666;8.948;2023-04-08T07:41:31;10.23;;;7.87;;
20379;SDS011;10349;48.666;8.948;2023-04-08T07:43:57;12.63;;;8.13;;
20379;SDS011;10349;48.666;8.948;2023-04-08T07:46:23;12.60;;;7.90;;
20379;SDS011;10349;48.666;8.948;2023-04-08T07:48:48;11.03;;;8.93;;
20379;SDS011;10349;48.666;8.948;2023-04-08T07:51:14;13.07;;;9.17;;
20379;SDS011;10349;48.666;8.948;2023-04-08T07:53:40;11.57;;;7.60;;
20379;SDS011;10349;48.666;8.948;2023-04-08T07:56:13;14.20;;;8.63;;
20379;SDS011;10349;48.666;8.948;2023-04-08T07:58:39;13.30;;;8.80;;
20379;SDS011;10349;48.666;8.948;2023-04-08T08:01:13;12.07;;;8.00;;
20379;SDS011;10349;48.666;8.948;2023-04-08T08:03:44;19.53;;;9.10;;
20379;SDS011;10349;48.666;8.948;2023-04-08T08:06:11;11.17;;;8.20;;
20379;SDS011;10349;48.666;8.948;2023-04-08T08:08:37;15.93;;;8.63;;
20379;SDS011;10349;48.666;8.948;2023-04-08T08:11:03;13.20;;;8.20;;
20379;SDS011;10349;48.666;8.948;2023-04-08T08:13:29;11.70;;;9.00;;
20379;SDS011;10349;48.666;8.948;2023-04-08T08:15:55;13.80;;;9.17;;
20379;SDS011;10349;48.666;8.948;2023-04-08T08:18:21;14.43;;;8.27;;
20379;SDS011;10349;48.666;8.948;2023-04-08T08:20:47;12.50;;;8.67;;
20379;SDS011;10349;48.666;8.948;2023-04-08T08:23:12;8.77;;;6.93;;
20379;SDS011;10349;48.666;8.948;2023-04-08T08:25:38;11.33;;;7.87;;
20379;SDS011;10349;48.666;8.948;2023-04-08T08:28:04;7.90;;;7.10;;
20379;SDS011;10349;48.666;8.948;2023-04-08T08:30:29;11.73;;;8.00;;
20379;SDS011;10349;48.666;8.948;2023-04-08T08:32:55;13.87;;;7.73;;
20379;SDS011;10349;48.666;8.948;2023-04-08T08:35:23;12.03;;;8.13;;
20379;SDS011;10349;48.666;8.948;2023-04-08T08:37:49;12.70;;;9.17;;
20379;SDS011;10349;48.666;8.948;2023-04-08T08:40:15;11.20;;;8.40;;
20379;SDS011;10349;48.666;8.948;2023-04-08T08:42:41;13.60;;;8.10;;
20379;SDS011;10349;48.666;8.948;2023-04-08T08:45:14;9.10;;;8.20;;
20379;SDS011;10349;48.666;8.948;2023-04-08T08:47:40;12.03;;;9.10;;
20379;SDS011;10349;48.666;8.948;2023-04-08T08:50:06;11.20;;;8.53;;
20379;SDS011;10349;48.666;8.948;2023-04-08T08:52:33;12.47;;;9.20;;
20379;SDS011;10349;48.666;8.948;2023-04-08T08:54:58;10.83;;;8.23;;
20379;SDS011;10349;48.666;8.948;2023-04-08T08:57:26;14.33;;;8.63;;
20379;SDS011;10349;48.666;8.948;2023-04-08T08:59:52;13.60;;;8.77;;
20379;SDS011;10349;48.666;8.948;2023-04-08T09:04:58;12.73;;;8.87;;
20379;SDS011;10349;48.666;8.948;2023-04-08T09:07:26;13.23;;;9.47;;
20379;SDS011;10349;48.666;8.948;2023-04-08T09:09:54;14.93;;;10.27;;
20379;SDS011;10349;48.666;8.948;2023-04-08T09:12:21;12.03;;;9.53;;
20379;SDS011;10349;48.666;8.948;2023-04-08T09:14:48;14.57;;;10.13;;
20379;SDS011;10349;48.666;8.948;2023-04-08T09:17:14;14.70;;;10.00;;
20379;SDS011;10349;48.666;8.948;2023-04-08T09:25:26;14.83;;;9.73;;
20379;SDS011;10349;48.666;8.948;2023-04-08T09:27:53;12.17;;;9.57;;
20379;SDS011;10349;48.666;8.948;2023-04-08T09:30:23;17.53;;;9.47;;
20379;SDS011;10349;48.666;8.948;2023-04-08T09:32:50;13.47;;;9.57;;
20379;SDS011;10349;48.666;8.948;2023-04-08T09:35:21;15.00;;;10.77;;
20379;SDS011;10349;48.666;8.948;2023-04-08T09:37:48;11.33;;;8.73;;
20379;SDS011;10349;48.666;8.948;2023-04-08T09:40:14;12.20;;;10.23;;
20379;SDS011;10349;48.666;8.948;2023-04-08T09:42:45;13.77;;;9.73;;
20379;SDS011;10349;48.666;8.948;2023-04-08T09:45:16;17.53;;;11.00;;
20379;SDS011;10349;48.666;8.948;2023-04-08T09:47:55;11.80;;;9.70;;
20379;SDS011;10349;48.666;8.948;2023-04-08T09:50:26;16.73;;;9.73;;
20379;SDS011;10349;48.666;8.948;2023-04-08T09:53:40;11.87;;;9.37;;
20379;SDS011;10349;48.666;8.948;2023-04-08T09:55:52;14.20;;;9.73;;
20379;SDS011;10349;48.666;8.948;2023-04-08T09:58:21;12.50;;;9.70;;
20379;SDS011;10349;48.666;8.948;2023-04-08T10:00:53;15.20;;;10.17;;
20379;SDS011;10349;48.666;8.948;2023-04-08T10:05:48;13.80;;;10.73;;
20379;SDS011;10349;48.666;8.948;2023-04-08T10:08:16;17.37;;;11.77;;
20379;SDS011;10349;48.666;8.948;2023-04-08T10:10:42;11.33;;;10.00;;
20379;SDS011;10349;48.666;8.948;2023-04-08T10:13:08;20.10;;;10.73;;
20379;SDS011;10349;48.666;8.948;2023-04-08T10:15:34;18.60;;;11.10;;
20379;SDS011;10349;48.666;8.948;2023-04-08T10:23:06;16.70;;;10.30;;
20379;SDS011;10349;48.666;8.948;2023-04-08T10:25:36;15.23;;;11.00;;
20379;SDS011;10349;48.666;8.948;2023-04-08T10:30:47;14.00;;;10.30;;
20379;SDS011;10349;48.666;8.948;2023-04-08T10:33:19;15.13;;;10.30;;
20379;SDS011;10349;48.666;8.948;2023-04-08T10:35:53;13.80;;;11.57;;
20379;SDS011;10349;48.666;8.948;2023-04-08T10:38:24;21.67;;;12.40;;
20379;SDS011;10349;48.666;8.948;2023-04-08T10:40:51;12.90;;;10.37;;
20379;SDS011;10349;48.666;8.948;2023-04-08T10:43:18;18.27;;;10.77;;
20379;SDS011;10349;48.666;8.948;2023-04-08T10:45:44;16.23;;;11.60;;
20379;SDS011;10349;48.666;8.948;2023-04-08T10:50:37;17.47;;;11.23;;
20379;SDS011;10349;48.666;8.948;2023-04-08T10:53:02;13.93;;;11.23;;
20379;SDS011;10349;48.666;8.948;2023-04-08T10:55:29;18.10;;;11.60;;
20379;SDS011;10349;48.666;8.948;2023-04-08T10:58:04;12.70;;;10.30;;
20379;SDS011;10349;48.666;8.948;2023-04-08T11:00:38;16.13;;;11.40;;
20379;SDS011;10349;48.666;8.948;2023-04-08T11:03:05;17.97;;;11.70;;
20379;SDS011;10349;48.666;8.948;2023-04-08T11:05:33;15.47;;;12.27;;
20379;SDS011;10349;48.666;8.948;2023-04-08T11:08:01;13.17;;;10.70;;
20379;SDS011;10349;48.666;8.948;2023-04-08T11:10:28;16.97;;;12.40;;
20379;SDS011;10349;48.666;8.948;2023-04-08T11:12:54;16.40;;;12.23;;
20379;SDS011;10349;48.666;8.948;2023-04-08T11:15:20;15.27;;;11.50;;
20379;SDS011;10349;48.666;8.948;2023-04-08T11:17:49;17.20;;;12.80;;
20379;SDS011;10349;48.666;8.948;2023-04-08T11:20:16;12.87;;;10.90;;
20379;SDS011;10349;48.666;8.948;2023-04-08T11:22:45;16.47;;;11.70;;
20379;SDS011;10349;48.666;8.948;2023-04-08T11:25:11;22.80;;;13.27;;
20379;SDS011;10349;48.666;8.948;2023-04-08T11:27:37;16.70;;;12.47;;
20379;SDS011;10349;48.666;8.948;2023-04-08T11:30:05;14.43;;;11.43;;
20379;SDS011;10349;48.666;8.948;2023-04-08T11:32:32;13.80;;;11.17;;
20379;SDS011;10349;48.666;8.948;2023-04-08T11:35:00;18.40;;;12.20;;
20379;SDS011;10349;48.666;8.948;2023-04-08T11:37:39;17.60;;;12.20;;
20379;SDS011;10349;48.666;8.948;2023-04-08T11:40:06;17.47;;;11.33;;
20379;SDS011;10349;48.666;8.948;2023-04-08T11:42:33;17.33;;;11.73;;
20379;SDS011;10349;48.666;8.948;2023-04-08T11:44:58;14.37;;;11.30;;
20379;SDS011;10349;48.666;8.948;2023-04-08T11:47:31;15.23;;;11.90;;
20379;SDS011;10349;48.666;8.948;2023-04-08T11:50:01;13.70;;;10.83;;
20379;SDS011;10349;48.666;8.948;2023-04-08T11:52:43;14.27;;;10.93;;
20379;SDS011;10349;48.666;8.948;2023-04-08T11:55:29;14.47;;;11.27;;
20379;SDS011;10349;48.666;8.948;2023-04-08T11:58:00;13.57;;;11.43;;
20379;SDS011;10349;48.666;8.948;2023-04-08T12:00:27;14.13;;;10.63;;
20379;SDS011;10349;48.666;8.948;2023-04-08T12:02:53;18.60;;;11.47;;
20379;SDS011;10349;48.666;8.948;2023-04-08T12:05:19;16.27;;;11.17;;
20379;SDS011;10349;48.666;8.948;2023-04-08T12:07:45;15.70;;;11.43;;
20379;SDS011;10349;48.666;8.948;2023-04-08T12:10:11;15.00;;;11.53;;
20379;SDS011;10349;48.666;8.948;2023-04-08T12:12:38;12.87;;;10.57;;
20379;SDS011;10349;48.666;8.948;2023-04-08T12:15:04;15.50;;;11.50;;
20379;SDS011;10349;48.666;8.948;2023-04-08T12:17:31;17.20;;;12.10;;
20379;SDS011;10349;48.666;8.948;2023-04-08T12:19:57;13.90;;;11.20;;
20379;SDS011;10349;48.666;8.948;2023-04-08T12:22:22;16.50;;;11.70;;
20379;SDS011;10349;48.666;8.948;2023-04-08T12:24:48;12.00;;;10.80;;
20379;SDS011;10349;48.666;8.948;2023-04-08T12:27:14;15.67;;;11.93;;
20379;SDS011;10349;48.666;8.948;2023-04-08T12:29:40;16.63;;;11.20;;
20379;SDS011;10349;48.666;8.948;2023-04-08T12:32:05;13.20;;;10.37;;
20379;SDS011;10349;48.666;8.948;2023-04-08T12:34:31;15.53;;;10.43;;
20379;SDS011;10349;48.666;8.948;2023-04-08T12:36:57;14.03;;;12.33;;
20379;SDS011;10349;48.666;8.948;2023-04-08T12:39:23;15.27;;;11.60;;
20379;SDS011;10349;48.666;8.948;2023-04-08T12:41:49;12.63;;;11.00;;
20379;SDS011;10349;48.666;8.948;2023-04-08T12:44:15;13.03;;;10.20;;
20379;SDS011;10349;48.666;8.948;2023-04-08T12:46:41;14.73;;;10.93;;
20379;SDS011;10349;48.666;8.948;2023-04-08T12:49:07;15.47;;;10.90;;
20379;SDS011;10349;48.666;8.948;2023-04-08T12:51:33;16.47;;;11.17;;
20379;SDS011;10349;48.666;8.948;2023-04-08T12:54:02;12.77;;;10.97;;
20379;SDS011;10349;48.666;8.948;2023-04-08T12:56:31;15.23;;;11.47;;
20379;SDS011;10349;48.666;8.948;2023-04-08T12:59:08;16.77;;;12.03;;
20379;SDS011;10349;48.666;8.948;2023-04-08T13:01:34;14.47;;;11.00;;
20379;SDS011;10349;48.666;8.948;2023-04-08T13:08:18;15.90;;;11.03;;
20379;SDS011;10349;48.666;8.948;2023-04-08T13:11:37;17.20;;;11.17;;
20379;SDS011;10349;48.666;8.948;2023-04-08T13:14:40;17.33;;;10.83;;
20379;SDS011;10349;48.666;8.948;2023-04-08T13:20:48;20.67;;;11.53;;
20379;SDS011;10349;48.666;8.948;2023-04-08T13:27:57;15.23;;;10.37;;
20379;SDS011;10349;48.666;8.948;2023-04-08T13:30:41;17.70;;;11.97;;
20379;SDS011;10349;48.666;8.948;2023-04-08T13:33:49;15.43;;;11.17;;
20379;SDS011;10349;48.666;8.948;2023-04-08T13:36:25;13.43;;;9.77;;
20379;SDS011;10349;48.666;8.948;2023-04-08T13:38:52;13.20;;;11.00;;
20379;SDS011;10349;48.666;8.948;2023-04-08T13:41:19;15.57;;;10.67;;
20379;SDS011;10349;48.666;8.948;2023-04-08T13:44:00;19.20;;;10.97;;
20379;SDS011;10349;48.666;8.948;2023-04-08T13:46:26;13.10;;;10.03;;
20379;SDS011;10349;48.666;8.948;2023-04-08T13:48:51;14.27;;;10.60;;
20379;SDS011;10349;48.666;8.948;2023-04-08T13:51:17;15.97;;;10.90;;
20379;SDS011;10349;48.666;8.948;2023-04-08T13:53:43;13.90;;;11.70;;
20379;SDS011;10349;48.666;8.948;2023-04-08T13:56:08;14.47;;;11.40;;
20379;SDS011;10349;48.666;8.948;2023-04-08T13:58:38;17.23;;;12.63;;
20379;SDS011;10349;48.666;8.948;2023-04-08T14:01:04;13.87;;;12.07;;
20379;SDS011;10349;48.666;8.948;2023-04-08T14:03:30;14.47;;;12.50;;
20379;SDS011;10349;48.666;8.948;2023-04-08T14:05:56;19.40;;;12.37;;
20379;SDS011;10349;48.666;8.948;2023-04-08T14:08:22;19.57;;;12.33;;
20379;SDS011;10349;48.666;8.948;2023-04-08T14:10:51;18.90;;;12.80;;
20379;SDS011;10349;48.666;8.948;2023-04-08T14:13:17;15.17;;;11.67;;
20379;SDS011;10349;48.666;8.948;2023-04-08T14:15:43;14.10;;;11.20;;
20379;SDS011;10349;48.666;8.948;2023-04-08T14:18:10;11.90;;;9.90;;
20379;SDS011;10349;48.666;8.948;2023-04-08T14:20:37;15.13;;;12.27;;
20379;SDS011;10349;48.666;8.948;2023-04-08T14:23:03;21.73;;;11.90;;
20379;SDS011;10349;48.666;8.948;2023-04-08T14:25:29;14.53;;;11.07;;
20379;SDS011;10349;48.666;8.948;2023-04-08T14:27:55;16.20;;;11.17;;
20379;SDS011;10349;48.666;8.948;2023-04-08T14:30:22;16.33;;;11.47;;
20379;SDS011;10349;48.666;8.948;2023-04-08T14:32:48;13.70;;;10.67;;
20379;SDS011;10349;48.666;8.948;2023-04-08T14:35:13;14.23;;;11.57;;
20379;SDS011;10349;48.666;8.948;2023-04-08T14:37:39;15.80;;;11.70;;
20379;SDS011;10349;48.666;8.948;2023-04-08T14:40:05;20.53;;;12.40;;
20379;SDS011;10349;48.666;8.948;2023-04-08T14:42:32;14.80;;;11.93;;
20379;SDS011;10349;48.666;8.948;2023-04-08T14:44:57;16.93;;;11.70;;
20379;SDS011;10349;48.666;8.948;2023-04-08T14:47:24;18.83;;;11.67;;
20379;SDS011;10349;48.666;8.948;2023-04-08T14:49:50;17.03;;;11.97;;
20379;SDS011;10349;48.666;8.948;2023-04-08T14:52:16;13.43;;;10.47;;
20379;SDS011;10349;48.666;8.948;2023-04-08T14:54:42;16.80;;;11.60;;
20379;SDS011;10349;48.666;8.948;2023-04-08T14:57:09;18.70;;;12.60;;
20379;SDS011;10349;48.666;8.948;2023-04-08T14:59:35;19.60;;;12.17;;
20379;SDS011;10349;48.666;8.948;2023-04-08T15:02:01;15.40;;;11.30;;
20379;SDS011;10349;48.666;8.948;2023-04-08T15:04:27;21.17;;;10.90;;
20379;SDS011;10349;48.666;8.948;2023-04-08T15:06:52;14.30;;;10.70;;
20379;SDS011;10349;48.666;8.948;2023-04-08T15:09:18;15.80;;;11.37;;
20379;SDS011;10349;48.666;8.948;2023-04-08T15:11:44;16.77;;;12.00;;